Time;durP1;ratioP1;P1;durP2;ratioP2;P2;SDS_P1;SDS_P2;PMS_P1;PMS_P2;Temp;Humidity;BMP_temperature;BMP_pressure;BME280_temperature;BME280_humidity;BME280_pressure;Samples;Min_cycle;Max_cycle;Signal;HPM_P1;HPM_P2
2022/06/29 00:02:24;;;;;;;18.10;16.40;;;;;;;20.15;100.00;99175.05;105256;1271;73562;-69
2022/06/29 00:04:50;;;;;;;19.10;17.30;;;;;;;20.14;100.00;99164.85;105012;1271;60596;-70
2022/06/29 00:07:17;;;;;;;19.80;18.00;;;;;;;20.18;100.00;99155.79;105299;1271;61076;-70
2022/06/29 00:09:43;;;;;;;20.30;18.50;;;;;;;20.19;100.00;99161.67;105256;1271;60567;-70
2022/06/29 00:12:10;;;;;;;22.40;20.30;;;;;;;20.20;100.00;99168.64;105259;1271;69146;-71
2022/06/29 00:14:41;;;;;;;21.20;19.10;;;;;;;20.22;100.00;99168.21;105257;1270;73254;-71
2022/06/29 00:17:12;;;;;;;19.90;18.10;;;;;;;20.24;100.00;99165.08;105263;1271;61256;-72
2022/06/29 00:19:40;;;;;;;18.70;16.90;;;;;;;20.26;100.00;99169.79;105318;1271;60830;-70
2022/06/29 00:22:08;;;;;;;20.40;18.50;;;;;;;20.21;100.00;99169.77;105007;1271;75505;-69
2022/06/29 00:24:35;;;;;;;20.50;18.60;;;;;;;20.15;100.00;99163.33;105053;1270;69373;-70
2022/06/29 00:27:03;;;;;;;19.60;17.70;;;;;;;20.20;100.00;99164.82;105256;1271;74191;-70
2022/06/29 00:29:30;;;;;;;19.30;17.70;;;;;;;20.28;100.00;99157.86;105268;1269;60466;-70
2022/06/29 00:31:57;;;;;;;21.60;19.60;;;;;;;20.39;100.00;99149.29;105262;1271;61126;-69
2022/06/29 00:34:23;;;;;;;19.40;17.60;;;;;;;20.51;100.00;99148.23;105249;1271;74364;-70
2022/06/29 00:36:50;;;;;;;20.50;18.60;;;;;;;20.56;100.00;99142.29;105227;1270;60472;-70
2022/06/29 00:39:16;;;;;;;22.20;20.20;;;;;;;20.53;100.00;99137.35;105223;1271;73346;-70
2022/06/29 00:41:45;;;;;;;21.30;19.00;;;;;;;20.45;100.00;99130.56;105253;1271;60494;-70
2022/06/29 00:44:19;;;;;;;21.10;19.10;;;;;;;20.38;100.00;99126.13;105105;1271;60852;-70
2022/06/29 00:46:48;;;;;;;21.50;19.40;;;;;;;20.32;100.00;99126.52;105301;1271;76189;-70
2022/06/29 00:49:17;;;;;;;21.80;19.50;;;;;;;20.31;100.00;99123.40;105483;1270;70134;-71
2022/06/29 00:51:46;;;;;;;21.30;19.40;;;;;;;20.32;100.00;99118.44;105406;1271;73526;-70
2022/06/29 00:54:19;;;;;;;21.00;19.10;;;;;;;20.35;100.00;99115.58;105280;1270;60603;-70
2022/06/29 00:56:46;;;;;;;22.30;19.60;;;;;;;20.32;100.00;99115.60;105141;1271;60732;-70
2022/06/29 00:59:18;;;;;;;20.90;18.90;;;;;;;20.23;100.00;99111.32;104978;1271;75238;-70
2022/06/29 01:01:45;;;;;;;20.60;18.80;;;;;;;20.17;100.00;99114.02;105285;1271;70440;-69
2022/06/29 01:04:12;;;;;;;22.60;20.50;;;;;;;20.15;100.00;99121.88;104855;1271;73182;-70
2022/06/29 01:06:39;;;;;;;22.10;19.90;;;;;;;20.13;100.00;99131.39;105281;1271;60558;-69
2022/06/29 01:09:06;;;;;;;21.00;19.10;;;;;;;20.14;100.00;99137.83;104927;1271;62392;-70
2022/06/29 01:11:33;;;;;;;20.10;18.10;;;;;;;20.21;100.00;99138.44;105042;1271;75404;-71
2022/06/29 01:14:01;;;;;;;20.90;18.90;;;;;;;20.22;100.00;99136.52;104909;1271;68488;-70
2022/06/29 01:16:29;;;;;;;20.60;18.80;;;;;;;20.21;100.00;99136.61;105217;1271;73185;-71
2022/06/29 01:18:56;;;;;;;22.00;19.80;;;;;;;20.21;100.00;99130.08;105264;1270;60478;-70
2022/06/29 01:21:26;;;;;;;21.80;19.80;;;;;;;20.22;100.00;99119.16;105296;1271;61686;-71
2022/06/29 01:23:53;;;;;;;23.70;21.30;;;;;;;20.28;100.00;99096.86;105262;1271;75568;-71
2022/06/29 01:26:19;;;;;;;21.80;19.70;;;;;;;20.32;100.00;99077.79;105011;1271;60582;-71
2022/06/29 01:28:46;;;;;;;21.60;19.60;;;;;;;20.34;100.00;99068.98;105087;1271;74417;-70
2022/06/29 01:31:18;;;;;;;19.30;17.40;;;;;;;20.28;100.00;99070.64;104953;1271;60591;-69
2022/06/29 01:33:47;;;;;;;19.40;17.60;;;;;;;20.17;100.00;99071.81;105355;1271;60727;-67
2022/06/29 01:36:16;;;;;;;18.60;16.80;;;;;;;20.09;100.00;99071.56;105152;1271;73575;-69
2022/06/29 01:38:43;;;;;;;16.90;15.40;;;;;;;20.07;100.00;99074.71;105071;1271;70157;-70
2022/06/29 01:41:11;;;;;;;16.70;15.30;;;;;;;20.04;100.00;99080.13;105444;1271;72585;-70
2022/06/29 01:43:38;;;;;;;16.90;15.30;;;;;;;20.01;100.00;99086.89;105047;1271;60632;-69
2022/06/29 01:46:05;;;;;;;17.70;16.00;;;;;;;20.03;100.00;99090.65;105265;1271;61823;-70
2022/06/29 01:48:33;;;;;;;18.70;16.10;;;;;;;20.04;100.00;99089.85;105261;1271;75981;-69
2022/06/29 01:50:59;;;;;;;17.80;16.20;;;;;;;20.02;100.00;99089.88;105259;1271;68337;-70
2022/06/29 01:53:26;;;;;;;17.10;15.60;;;;;;;20.02;100.00;99083.74;105238;1271;74198;-69
2022/06/29 01:55:52;;;;;;;17.10;15.60;;;;;;;19.97;100.00;99078.48;105012;1271;60529;-69
2022/06/29 01:58:19;;;;;;;17.20;15.60;;;;;;;19.93;100.00;99076.33;105232;1271;60482;-70
2022/06/29 02:01:04;;;;;;;16.80;15.10;;;;;;;19.92;100.00;99077.33;105244;1270;74381;-68
2022/06/29 02:03:31;;;;;;;16.90;15.30;;;;;;;19.93;100.00;99078.92;105126;1271;69232;-70
2022/06/29 02:05:58;;;;;;;16.60;15.00;;;;;;;19.93;100.00;99079.83;105249;1271;74109;-70
2022/06/29 02:08:24;;;;;;;16.60;15.10;;;;;;;19.92;100.00;99080.24;105240;1271;60517;-70
2022/06/29 02:10:51;;;;;;;16.50;15.10;;;;;;;19.88;100.00;99075.04;105301;1271;60510;-72
2022/06/29 02:13:17;;;;;;;16.40;14.90;;;;;;;19.85;100.00;99077.23;105265;1271;60558;-70
2022/06/29 02:15:44;;;;;;;14.70;13.40;;;;;;;19.80;100.00;99073.91;105269;1271;60520;-71
2022/06/29 02:18:11;;;;;;;14.50;13.10;;;;;;;19.72;100.00;99079.46;105078;1271;74115;-70
2022/06/29 02:20:37;;;;;;;13.60;12.30;;;;;;;19.67;100.00;99077.73;104998;1271;60479;-71
2022/06/29 02:23:04;;;;;;;14.00;12.70;;;;;;;19.64;100.00;99078.45;105281;1271;61009;-70
2022/06/29 02:25:31;;;;;;;15.60;13.90;;;;;;;19.61;100.00;99081.66;105241;1271;75885;-71
2022/06/29 02:27:57;;;;;;;14.60;13.20;;;;;;;19.62;100.00;99078.43;105266;1271;70372;-70
2022/06/29 02:34:43;;;;;;;14.10;12.60;;;;;;;19.64;100.00;99084.80;105266;1270;73400;-79
2022/06/29 02:36:05;;;;;;;13.90;12.70;;;;;;;19.59;100.00;99082.61;105165;1270;60819;-79
2022/06/29 02:38:31;;;;;;;14.90;13.40;;;;;;;19.58;100.00;99082.86;104940;1272;74353;-79
2022/06/29 02:40:58;;;;;;;14.00;12.70;;;;;;;19.64;100.00;99082.01;105265;1271;70204;-79
2022/06/29 02:43:24;;;;;;;12.70;11.60;;;;;;;19.73;100.00;99082.95;105138;1271;60494;-79
2022/06/29 02:45:52;;;;;;;14.40;13.00;;;;;;;19.78;100.00;99076.67;105299;1271;61943;-78
2022/06/29 02:48:18;;;;;;;14.50;12.60;;;;;;;19.82;100.00;99070.11;105126;1271;60847;-78
2022/06/29 02:50:45;;;;;;;14.30;13.00;;;;;;;19.87;100.00;99066.75;104976;1271;72829;-79
2022/06/29 02:53:12;;;;;;;13.70;12.30;;;;;;;19.89;100.00;99062.58;105250;1271;68378;-80
2022/06/29 02:55:38;;;;;;;13.50;12.20;;;;;;;19.90;100.00;99055.59;105254;1271;60529;-78
2022/06/29 02:58:05;;;;;;;13.50;12.40;;;;;;;19.95;100.00;99051.61;105277;1271;60538;-78
2022/06/29 03:00:31;;;;;;;13.40;12.30;;;;;;;19.98;100.00;99047.16;104980;1271;60466;-78
2022/06/29 03:02:58;;;;;;;14.30;12.90;;;;;;;19.99;100.00;99048.56;105241;1270;75321;-79
2022/06/29 03:05:24;;;;;;;13.70;12.60;;;;;;;20.02;100.00;99046.08;105264;1271;69308;-79
2022/06/29 03:07:51;;;;;;;14.00;12.70;;;;;;;20.04;100.00;99044.91;105213;1271;60357;-78
2022/06/29 03:10:18;;;;;;;14.80;13.40;;;;;;;20.08;100.00;99036.86;105296;1271;60606;-77
2022/06/29 03:12:44;;;;;;;13.70;12.30;;;;;;;20.14;100.00;99031.69;105269;1271;61942;-79
2022/06/29 03:15:11;;;;;;;14.30;13.00;;;;;;;20.24;100.00;99028.00;105245;1270;74623;-80
2022/06/29 03:17:37;;;;;;;14.70;13.40;;;;;;;20.30;100.00;99021.60;105259;1271;70119;-80
2022/06/29 03:20:05;;;;;;;14.20;12.90;;;;;;;20.34;100.00;99019.10;105315;1271;60593;-80
2022/06/29 03:22:34;;;;;;;14.00;12.70;;;;;;;20.39;100.00;99022.77;105229;1271;60599;-80
2022/06/29 03:25:00;;;;;;;12.70;11.40;;;;;;;20.44;100.00;99019.91;105158;1271;60955;-77
2022/06/29 03:27:27;;;;;;;12.40;11.20;;;;;;;20.50;100.00;99018.57;105258;1271;75438;-80
2022/06/29 03:29:54;;;;;;;13.00;11.70;;;;;;;20.56;100.00;99020.44;105281;1271;67014;-80
2022/06/29 03:32:21;;;;;;;12.30;11.20;;;;;;;20.64;100.00;99020.11;105304;1271;60417;-79
2022/06/29 03:34:47;;;;;;;12.70;11.60;;;;;;;20.68;100.00;99019.48;105230;1271;60473;-80
2022/06/29 03:37:14;;;;;;;12.30;11.40;;;;;;;20.71;100.00;99018.30;105284;1270;60858;-79
2022/06/29 03:39:41;;;;;;;13.70;12.50;;;;;;;20.76;100.00;99019.14;105031;1272;73428;-78
2022/06/29 03:42:08;;;;;;;12.80;11.80;;;;;;;20.83;100.00;99017.88;105363;1271;69099;-79
2022/06/29 03:44:35;;;;;;;12.50;11.30;;;;;;;20.91;100.00;99015.24;105212;1271;73086;-80
2022/06/29 03:47:01;;;;;;;12.70;11.50;;;;;;;21.00;100.00;99008.81;105240;1269;60441;-80
2022/06/29 03:49:28;;;;;;;11.70;10.60;;;;;;;21.07;100.00;99004.24;105354;1271;62106;-79
2022/06/29 03:51:54;;;;;;;13.50;12.40;;;;;;;21.19;100.00;98998.29;105039;1271;60493;-77
2022/06/29 03:54:21;;;;;;;13.00;11.60;;;;;;;21.29;100.00;99002.33;105242;1271;69691;-79
2022/06/29 03:56:48;;;;;;;11.80;10.80;;;;;;;21.37;100.00;99003.98;105307;1271;73681;-78
2022/06/29 03:59:14;;;;;;;12.70;11.40;;;;;;;21.48;100.00;99003.89;105237;1271;60467;-79
2022/06/29 04:01:41;;;;;;;12.80;11.60;;;;;;;21.56;100.00;99002.96;105293;1268;59355;-79
2022/06/29 04:04:07;;;;;;;12.20;11.10;;;;;;;21.56;100.00;99007.23;105255;1271;74380;-77
2022/06/29 04:06:34;;;;;;;13.50;12.20;;;;;;;21.59;100.00;99011.26;105278;1271;60781;-78
2022/06/29 04:09:00;;;;;;;13.70;12.40;;;;;;;21.63;100.00;99007.63;105242;1270;73410;-78
2022/06/29 04:14:12;;;;;;;14.00;12.70;;;;;;;21.61;100.00;99004.02;105275;1271;61755;-79
2022/06/29 04:16:39;;;;;;;12.90;11.80;;;;;;;21.60;100.00;99001.02;105236;1271;75583;-80
2022/06/29 04:19:05;;;;;;;13.20;12.00;;;;;;;21.53;100.00;99001.98;105332;1271;69701;-79
2022/06/29 04:21:32;;;;;;;12.60;11.50;;;;;;;21.52;100.00;99005.41;105248;1269;74631;-79
2022/06/29 04:23:59;;;;;;;14.20;12.60;;;;;;;21.72;100.00;99003.84;105263;1270;60472;-79
2022/06/29 04:26:25;;;;;;;13.80;12.60;;;;;;;22.19;100.00;98995.25;105102;1271;61829;-78
2022/06/29 04:28:52;;;;;;;13.70;11.90;;;;;;;23.14;100.00;98997.48;105231;1271;74510;-79
2022/06/29 04:31:19;;;;;;;12.50;11.40;;;;;;;24.06;100.00;99001.84;105264;1271;70375;-79
2022/06/29 04:33:46;;;;;;;13.20;12.10;;;;;;;24.73;100.00;99005.82;105588;1271;74131;-80
2022/06/29 04:36:13;;;;;;;13.20;11.90;;;;;;;25.21;100.00;99002.18;105592;1271;60471;-80
2022/06/29 04:38:39;;;;;;;13.60;12.30;;;;;;;25.75;100.00;99004.21;105603;1269;62107;-80
2022/06/29 04:41:06;;;;;;;12.60;11.60;;;;;;;26.24;100.00;98997.77;105625;1271;72305;-82
2022/06/29 04:43:33;;;;;;;12.00;10.80;;;;;;;26.72;100.00;98999.08;105129;1271;68504;-69
2022/06/29 04:48:46;;;;;;;12.60;11.50;;;;;;;27.42;100.00;98997.98;105316;1271;60597;-68
2022/06/29 04:51:13;;;;;;;12.10;11.10;;;;;;;27.65;100.00;98999.02;105338;1271;60787;-71
2022/06/29 04:53:39;;;;;;;13.20;12.00;;;;;;;27.89;100.00;99003.17;105270;1270;73809;-71
2022/06/29 04:56:06;;;;;;;12.70;11.30;;;;;;;28.03;100.00;99007.06;105312;1271;60465;-71
2022/06/29 04:58:32;;;;;;;12.60;11.50;;;;;;;28.26;100.00;99009.23;105257;1271;73355;-71
2022/06/29 05:00:59;;;;;;;12.90;11.90;;;;;;;28.39;100.00;99008.52;105117;1271;60539;-71
2022/06/29 05:03:26;;;;;;;12.10;10.90;;;;;;;28.43;100.00;99012.48;105086;1271;61670;-71
2022/06/29 05:05:53;;;;;;;13.60;12.40;;;;;;;28.66;100.00;99007.11;105294;1271;74364;-71
2022/06/29 05:08:19;;;;;;;12.60;11.60;;;;;;;28.97;100.00;99007.73;104965;1271;69614;-71
2022/06/29 05:10:46;;;;;;;13.30;12.10;;;;;;;29.34;100.00;99002.45;105271;1271;74193;-71
2022/06/29 05:13:12;;;;;;;11.90;10.90;;;;;;;29.69;100.00;99002.43;105027;1271;60580;-70
2022/06/29 05:15:39;;;;;;;13.40;12.00;;;;;;;30.13;100.00;98993.69;105264;1271;60736;-70
2022/06/29 05:18:06;;;;;;;13.10;12.10;;;;;;;30.50;100.00;98988.50;105259;1270;75045;-70
2022/06/29 05:20:33;;;;;;;13.20;12.10;;;;;;;30.76;100.00;98984.86;105270;1271;70189;-71
2022/06/29 05:22:59;;;;;;;12.90;11.90;;;;;;;30.50;100.00;98988.72;104958;1271;73070;-70
2022/06/29 05:25:26;;;;;;;14.10;12.80;;;;;;;29.99;100.00;98995.23;105237;1271;60505;-70
2022/06/29 05:27:53;;;;;;;12.60;11.60;;;;;;;29.36;100.00;98996.73;105012;1271;61828;-69
2022/06/29 05:30:19;;;;;;;14.40;13.00;;;;;;;28.80;100.00;98998.75;104934;1271;74589;-69
2022/06/29 05:32:46;;;;;;;12.80;11.80;;;;;;;28.21;100.00;99000.71;105097;1272;69479;-69
2022/06/29 05:35:13;;;;;;;13.40;12.40;;;;;;;27.68;100.00;99002.34;105130;1271;73614;-68
2022/06/29 05:37:40;;;;;;;13.40;12.30;;;;;;;27.17;100.00;98999.54;105131;1271;60592;-70
2022/06/29 05:40:06;;;;;;;13.20;12.10;;;;;;;26.89;100.00;98993.10;105104;1271;60841;-70
2022/06/29 05:42:34;;;;;;;13.50;12.40;;;;;;;27.42;100.00;98998.74;104732;1271;541267;-71
2022/06/29 05:45:03;;;;;;;13.90;12.60;;;;;;;28.03;100.00;99004.09;105256;1271;69165;-70
2022/06/29 05:47:29;;;;;;;12.70;11.70;;;;;;;28.71;100.00;99007.29;105165;1271;74221;-70
2022/06/29 05:49:57;;;;;;;11.60;10.80;;;;;;;29.38;100.00;99004.55;105216;1271;60447;-70
2022/06/29 05:52:24;;;;;;;13.50;12.40;;;;;;;29.85;100.00;98999.75;105210;1271;60852;-70
2022/06/29 05:54:50;;;;;;;14.20;11.70;;;;;;;30.09;100.00;98996.19;105189;1271;74522;-71
2022/06/29 05:57:19;;;;;;;12.20;11.30;;;;;;;30.21;100.00;98990.14;105225;1271;70531;-70
2022/06/29 05:59:47;;;;;;;11.70;11.00;;;;;;;29.78;100.00;98989.89;105203;1271;73687;-70
2022/06/29 06:02:13;;;;;;;12.50;11.60;;;;;;;29.69;100.00;98990.41;105468;1271;60589;-70
2022/06/29 06:04:40;;;;;;;12.50;11.60;;;;;;;29.72;100.00;98985.77;105341;1271;60771;-71
2022/06/29 06:07:07;;;;;;;12.90;11.90;;;;;;;29.30;100.00;98977.65;105276;1271;75261;-70
2022/06/29 06:09:34;;;;;;;12.90;11.90;;;;;;;28.81;100.00;98975.03;105256;1271;60363;-70
2022/06/29 06:12:00;;;;;;;12.90;11.90;;;;;;;28.22;100.00;98972.99;105235;1270;74189;-71
2022/06/29 06:14:27;;;;;;;13.40;12.20;;;;;;;27.65;100.00;98976.32;105239;1271;60625;-70
2022/06/29 06:16:53;;;;;;;12.70;11.50;;;;;;;27.19;100.00;98983.46;104984;1271;61801;-72
2022/06/29 06:19:20;;;;;;;14.20;13.10;;;;;;;27.01;100.00;98988.06;105267;1271;73423;-69
2022/06/29 06:21:46;;;;;;;13.80;12.80;;;;;;;27.12;100.00;98993.81;104984;1271;69209;-69
2022/06/29 06:24:13;;;;;;;14.70;13.40;;;;;;;27.27;100.00;98995.60;105259;1271;73837;-70
2022/06/29 06:26:40;;;;;;;14.30;13.10;;;;;;;27.29;100.00;98997.58;105274;1271;60508;-69
2022/06/29 06:29:06;;;;;;;14.30;13.20;;;;;;;27.50;100.00;98997.27;105271;1271;60812;-70
2022/06/29 06:31:34;;;;;;;14.40;13.30;;;;;;;27.59;100.00;98989.85;105243;1271;74391;-69
2022/06/29 06:34:01;;;;;;;16.30;14.80;;;;;;;27.69;100.00;98988.98;105282;1271;69781;-69
2022/06/29 06:36:27;;;;;;;15.60;14.20;;;;;;;27.69;100.00;98986.46;105257;1271;73724;-70
2022/06/29 06:38:54;;;;;;;15.40;14.20;;;;;;;27.59;100.00;98985.38;105046;1271;60510;-69
2022/06/29 06:41:21;;;;;;;15.30;14.20;;;;;;;27.90;100.00;98988.63;105258;1271;60698;-71
2022/06/29 06:44:05;;;;;;;14.90;13.70;;;;;;;28.21;100.00;98980.22;105225;1271;74448;-72
2022/06/29 06:46:34;;;;;;;15.40;14.00;;;;;;;28.64;100.00;98983.71;105250;1271;70693;-69
2022/06/29 06:49:00;;;;;;;17.60;16.10;;;;;;;29.05;100.00;98987.25;105207;1271;74206;-70
2022/06/29 06:51:27;;;;;;;15.10;13.90;;;;;;;29.20;100.00;98987.14;105227;1271;60591;-70
2022/06/29 06:53:53;;;;;;;15.70;14.50;;;;;;;29.04;100.00;98987.17;104995;1271;61166;-70
2022/06/29 06:56:20;;;;;;;16.30;15.10;;;;;;;29.09;100.00;98986.13;105260;1271;75314;-70
2022/06/29 06:58:47;;;;;;;16.70;15.30;;;;;;;29.15;100.00;98989.13;105303;1271;70431;-70
2022/06/29 07:01:13;;;;;;;17.30;15.80;;;;;;;29.26;100.00;98994.33;105249;1271;73353;-69
2022/06/29 07:03:40;;;;;;;14.50;13.50;;;;;;;29.48;100.00;98998.06;105279;1271;60510;-70
2022/06/29 07:06:10;;;;;;;15.00;13.70;;;;;;;29.87;100.00;98993.98;105262;1270;60482;-70
2022/06/29 07:08:39;;;;;;;16.00;14.90;;;;;;;30.26;100.00;98991.17;105256;1271;74845;-70
2022/06/29 07:11:06;;;;;;;16.20;14.80;;;;;;;30.41;100.00;98985.20;105252;1271;70208;-70
2022/06/29 07:13:33;;;;;;;16.40;14.90;;;;;;;30.53;100.00;98988.37;105275;1271;74205;-69
2022/06/29 07:16:03;;;;;;;16.20;14.90;;;;;;;30.64;100.00;98990.48;105247;1271;60507;-70
2022/06/29 07:18:30;;;;;;;15.70;14.40;;;;;;;30.49;100.00;98993.15;105204;1271;62098;-71
2022/06/29 07:20:57;;;;;;;14.40;13.30;;;;;;;30.32;100.00;98993.61;105249;1271;75451;-70
2022/06/29 07:23:24;;;;;;;15.60;14.40;;;;;;;30.36;100.00;98983.70;105477;1271;69374;-70
2022/06/29 07:25:51;;;;;;;15.50;14.30;;;;;;;30.33;100.00;98982.17;105234;1271;74496;-71
2022/06/29 07:28:17;;;;;;;14.60;13.50;;;;;;;30.03;100.00;98980.58;105211;1271;60393;-71
2022/06/29 07:30:44;;;;;;;15.50;14.10;;;;;;;29.84;100.00;98983.61;105097;1271;61019;-70
2022/06/29 07:33:11;;;;;;;17.00;15.80;;;;;;;29.69;100.00;98986.68;105282;1269;75649;-70
2022/06/29 07:35:37;;;;;;;16.50;15.30;;;;;;;29.45;100.00;98983.59;105278;1271;69260;-70
2022/06/29 07:38:05;;;;;;;16.40;15.20;;;;;;;29.12;100.00;98980.63;105248;1271;73147;-70
2022/06/29 07:40:33;;;;;;;16.30;15.00;;;;;;;28.89;100.00;98980.21;105274;1271;60508;-70
2022/06/29 07:42:59;;;;;;;17.00;15.50;;;;;;;28.73;100.00;98984.70;105002;1271;61209;-70
2022/06/29 07:45:26;;;;;;;17.90;16.60;;;;;;;28.55;100.00;98980.22;105223;1271;75816;-70
2022/06/29 07:47:53;;;;;;;16.40;15.20;;;;;;;28.54;100.00;98980.86;105227;1271;69697;-70
2022/06/29 07:50:20;;;;;;;17.90;16.30;;;;;;;28.44;100.00;98977.64;105067;1271;73414;-70
2022/06/29 07:52:46;;;;;;;16.00;14.50;;;;;;;28.32;100.00;98977.71;105247;1271;60472;-68
2022/06/29 07:55:13;;;;;;;16.00;14.50;;;;;;;28.20;100.00;98980.06;105219;1271;60503;-69
2022/06/29 07:57:40;;;;;;;17.20;15.70;;;;;;;28.08;100.00;98977.33;105197;1271;74630;-69
2022/06/29 08:00:07;;;;;;;16.40;14.90;;;;;;;28.00;100.00;98976.13;105224;1271;70088;-69
2022/06/29 08:02:34;;;;;;;16.80;15.30;;;;;;;28.12;100.00;98977.10;105240;1270;74185;-69
2022/06/29 08:05:01;;;;;;;15.50;14.40;;;;;;;28.16;100.00;98974.22;105240;1271;60409;-71
2022/06/29 08:07:28;;;;;;;18.20;16.70;;;;;;;28.19;100.00;98969.02;105215;1271;62009;-71
2022/06/29 08:09:55;;;;;;;16.00;14.70;;;;;;;28.18;100.00;98965.81;105006;1271;75528;-71
2022/06/29 08:12:21;;;;;;;15.50;14.30;;;;;;;28.20;100.00;98956.23;105251;1271;69151;-72
2022/06/29 08:14:48;;;;;;;16.90;15.60;;;;;;;28.19;100.00;98950.84;105209;1271;74430;-71
2022/06/29 08:17:14;;;;;;;15.10;13.80;;;;;;;28.12;100.00;98951.81;105233;1271;60590;-71
2022/06/29 08:19:41;;;;;;;15.60;14.30;;;;;;;27.97;100.00;98957.13;105248;1271;60436;-70
2022/06/29 08:22:08;;;;;;;15.40;14.20;;;;;;;27.89;100.00;98952.34;105245;1271;75633;-70
2022/06/29 08:24:34;;;;;;;14.50;13.40;;;;;;;27.86;100.00;98946.67;105237;1271;70191;-70
2022/06/29 08:27:01;;;;;;;16.20;14.90;;;;;;;27.99;100.00;98942.58;105212;1271;74175;-70
2022/06/29 08:29:27;;;;;;;15.50;14.30;;;;;;;28.04;100.00;98932.45;105229;1270;60476;-70
2022/06/29 08:31:54;;;;;;;15.70;14.60;;;;;;;28.05;100.00;98928.31;105282;1271;61830;-70
2022/06/29 08:34:24;;;;;;;17.40;16.10;;;;;;;27.96;100.00;98930.71;105226;1271;74539;-71
2022/06/29 08:36:50;;;;;;;16.00;14.60;;;;;;;27.94;100.00;98930.00;105275;1271;69468;-71
2022/06/29 08:39:17;;;;;;;17.60;16.10;;;;;;;28.11;100.00;98926.98;105272;1271;73508;-71
2022/06/29 08:41:44;;;;;;;17.30;15.90;;;;;;;28.19;100.00;98922.21;105218;1271;60449;-71
2022/06/29 08:44:10;;;;;;;16.30;15.00;;;;;;;28.23;100.00;98918.91;105227;1271;61922;-71
2022/06/29 08:46:37;;;;;;;16.50;15.20;;;;;;;28.35;100.00;98916.74;105249;1271;74347;-70
2022/06/29 08:49:04;;;;;;;15.60;14.30;;;;;;;28.59;100.00;98921.96;104955;1271;70409;-71
2022/06/29 08:51:34;;;;;;;17.00;15.70;;;;;;;28.63;100.00;98921.90;105270;1271;74150;-70
2022/06/29 08:54:04;;;;;;;15.40;13.80;;;;;;;28.68;100.00;98920.35;105278;1271;60581;-70
2022/06/29 08:56:31;;;;;;;17.40;15.90;;;;;;;28.74;100.00;98923.77;105244;1271;60871;-70
2022/06/29 08:59:00;;;;;;;16.50;15.20;;;;;;;28.74;100.00;98928.12;105222;1271;75348;-70
2022/06/29 09:01:28;;;;;;;15.80;14.70;;;;;;;28.60;100.00;98925.94;105272;1270;69142;-70
2022/06/29 09:03:55;;;;;;;17.10;15.70;;;;;;;28.60;100.00;98919.43;105249;1271;73146;-70
2022/06/29 09:06:22;;;;;;;15.60;14.40;;;;;;;28.63;100.00;98917.55;104996;1271;60710;-70
2022/06/29 09:08:50;;;;;;;15.30;14.20;;;;;;;28.67;100.00;98917.80;105266;1271;61932;-70
2022/06/29 09:11:24;;;;;;;16.10;14.80;;;;;;;28.74;100.00;98916.77;105473;1271;74433;-71
2022/06/29 09:14:11;;;;;;;15.40;14.00;;;;;;;28.80;100.00;98910.89;105270;1271;70142;-70
2022/06/29 09:17:03;;;;;;;15.30;13.90;;;;;;;28.89;100.00;98912.77;105247;1271;74335;-70
2022/06/29 09:19:53;;;;;;;16.00;14.70;;;;;;;28.92;100.00;98911.95;105307;1271;60529;-70
2022/06/29 09:22:20;;;;;;;14.40;13.30;;;;;;;29.05;100.00;98913.33;105305;1271;61913;-70
2022/06/29 09:24:48;;;;;;;14.90;13.80;;;;;;;29.15;100.00;98918.83;105264;1271;74438;-71
2022/06/29 09:27:15;;;;;;;13.60;12.60;;;;;;;29.35;100.00;98917.42;105101;1270;70776;-71
2022/06/29 09:29:43;;;;;;;13.70;12.60;;;;;;;29.58;100.00;98911.27;104994;1272;72346;-71
2022/06/29 09:32:17;;;;;;;13.20;12.20;;;;;;;29.74;100.00;98906.13;105330;1271;60497;-71
2022/06/29 09:34:44;;;;;;;13.90;12.70;;;;;;;29.92;100.00;98896.86;105282;1271;60746;-71
2022/06/29 09:37:16;;;;;;;13.30;12.30;;;;;;;30.10;100.00;98892.11;105252;1271;74590;-71
2022/06/29 09:39:48;;;;;;;13.00;11.80;;;;;;;30.13;100.00;98889.79;105286;1271;69765;-71
2022/06/29 09:42:15;;;;;;;13.50;12.40;;;;;;;30.29;100.00;98885.71;105269;1271;73586;-70
2022/06/29 09:44:44;;;;;;;12.90;11.90;;;;;;;30.47;100.00;98884.39;105277;1271;60466;-70
2022/06/29 09:47:15;;;;;;;12.80;11.70;;;;;;;30.42;100.00;98883.40;105284;1271;61294;-70
2022/06/29 09:49:44;;;;;;;12.80;11.90;;;;;;;30.33;100.00;98881.20;105264;1271;75332;-70
2022/06/29 09:52:12;;;;;;;14.30;13.20;;;;;;;30.26;100.00;98880.29;105289;1271;70322;-70
2022/06/29 09:54:44;;;;;;;17.40;12.50;;;;;;;30.16;100.00;98878.74;105326;1271;73509;-70
2022/06/29 09:57:12;;;;;;;12.90;11.80;;;;;;;30.17;100.00;98874.77;105257;1271;60475;-72
2022/06/29 10:02:37;;;;;;;13.10;12.10;;;;;;;30.31;100.00;98869.73;105113;1271;75215;-70
2022/06/29 10:05:15;;;;;;;12.90;11.90;;;;;;;30.31;100.00;98872.77;105342;1271;69634;-70
2022/06/29 10:07:43;;;;;;;12.70;11.60;;;;;;;30.31;100.00;98868.51;105270;1271;74161;-70
2022/06/29 10:10:12;;;;;;;12.00;11.20;;;;;;;30.38;100.00;98865.58;104936;1271;60444;-70
2022/06/29 10:16:22;;;;;;;12.50;11.40;;;;;;;30.46;100.00;98870.73;105131;1271;75368;-70
2022/06/29 10:19:34;;;;;;;12.40;11.30;;;;;;;30.60;100.00;98874.91;104582;1280;69249;-69
2022/06/29 10:22:01;;;;;;;12.20;11.20;;;;;;;30.81;100.00;98878.58;103786;1287;75124;-70
2022/06/29 10:24:28;;;;;;;10.80;10.10;;;;;;;30.82;100.00;98873.17;103759;1287;60531;-70
2022/06/29 10:26:55;;;;;;;11.90;10.90;;;;;;;30.96;100.00;98870.50;103777;1287;61046;-70
2022/06/29 10:29:24;;;;;;;12.90;11.90;;;;;;;31.12;100.00;98872.45;103780;1287;74619;-70
2022/06/29 10:31:57;;;;;;;12.50;11.10;;;;;;;31.11;100.00;98872.04;103608;1288;69247;-70
2022/06/29 10:34:26;;;;;;;12.40;11.50;;;;;;;31.23;100.00;98874.92;103739;1287;73473;-69
2022/06/29 10:37:21;;;;;;;13.00;11.90;;;;;;;31.45;100.00;98869.05;103763;1287;60656;-70
2022/06/29 10:39:53;;;;;;;12.00;11.00;;;;;;;31.42;100.00;98866.73;103109;1294;60847;-71
2022/06/29 10:45:14;;;;;;;13.40;12.30;;;;;;;31.26;100.00;98870.18;103171;1294;70619;-71
2022/06/29 10:47:53;;;;;;;12.70;11.50;;;;;;;31.28;100.00;98865.91;103110;1294;74356;-72
2022/06/29 10:50:23;;;;;;;12.70;11.50;;;;;;;31.33;99.97;98857.90;103129;1294;60620;-71
2022/06/29 10:52:55;;;;;;;12.00;11.10;;;;;;;31.24;99.05;98856.16;103158;1294;61792;-71
2022/06/29 10:55:23;;;;;;;12.80;11.80;;;;;;;31.05;98.47;98853.35;103345;1286;74948;-71
2022/06/29 10:57:51;;;;;;;12.50;11.50;;;;;;;30.91;99.42;98852.09;104020;1278;70276;-70
2022/06/29 11:00:25;;;;;;;11.40;10.50;;;;;;;30.94;99.53;98851.27;104837;1274;74161;-70
2022/06/29 11:02:52;;;;;;;11.40;10.70;;;;;;;30.96;99.65;98849.34;104837;1277;60660;-71
2022/06/29 11:05:20;;;;;;;12.40;11.40;;;;;;;31.03;99.72;98843.02;104894;1277;61178;-70
2022/06/29 11:13:25;;;;;;;11.60;10.70;;;;;;;31.27;100.00;98838.39;104816;1277;72993;-70
2022/06/29 11:15:57;;;;;;;12.40;11.50;;;;;;;31.54;100.00;98828.83;104794;1277;60551;-70
2022/06/29 11:18:30;;;;;;;12.10;11.20;;;;;;;31.74;99.77;98829.23;105164;1271;62328;-70
2022/06/29 11:21:08;;;;;;;12.80;11.80;;;;;;;31.72;98.42;98827.30;105182;1271;74606;-70
2022/06/29 11:23:35;;;;;;;13.80;12.60;;;;;;;31.64;98.46;98829.25;105139;1271;70114;-69
2022/06/29 11:26:05;;;;;;;12.60;11.50;;;;;;;31.68;98.63;98828.33;105138;1271;73421;-71
2022/06/29 11:28:40;;;;;;;12.40;11.20;;;;;;;31.76;98.17;98829.39;105210;1271;60464;-71
2022/06/29 11:31:12;;;;;;;13.30;12.10;;;;;;;31.83;98.44;98826.05;105103;1270;60744;-72